createdAt,value
2022-12-09T00:02:08.396Z,19.98
2022-12-09T00:07:13.972Z,21.75
2022-12-09T00:12:21.451Z,21.20
2022-12-09T00:17:26.766Z,22.90
2022-12-09T00:22:37.013Z,25.73
2022-12-09T00:27:44.381Z,24.38
2022-12-09T00:32:48.360Z,23.95
2022-12-09T00:37:52.515Z,23.98
2022-12-09T00:42:54.163Z,25.77
2022-12-09T00:47:58.016Z,24.73
2022-12-09T00:53:07.283Z,24.23
2022-12-09T00:58:11.554Z,23.80
2022-12-09T01:03:20.222Z,24.42
2022-12-09T01:08:22.340Z,24.40
2022-12-09T01:13:24.010Z,24.35
2022-12-09T01:18:32.169Z,24.58
2022-12-09T01:23:34.242Z,23.50
2022-12-09T01:28:38.855Z,24.58
2022-12-09T01:33:53.495Z,25.23
2022-12-09T01:38:58.250Z,23.23
2022-12-09T01:44:34.608Z,23.08
2022-12-09T01:49:48.514Z,21.85
2022-12-09T01:54:56.241Z,21.95
2022-12-09T02:00:00.284Z,20.63
2022-12-09T02:05:06.862Z,20.97
2022-12-09T02:10:18.073Z,21.58
2022-12-09T02:15:51.721Z,23.33
2022-12-09T02:21:19.896Z,23.60
2022-12-09T02:27:01.131Z,23.20
2022-12-09T02:32:34.292Z,23.00
2022-12-09T02:37:57.116Z,24.20
2022-12-09T02:43:06.558Z,24.20
2022-12-09T02:48:16.503Z,23.05
2022-12-09T02:53:27.180Z,23.38
2022-12-09T02:58:34.715Z,21.67
2022-12-09T03:03:39.317Z,23.00
2022-12-09T03:09:01.025Z,23.38
2022-12-09T03:14:11.911Z,22.27
2022-12-09T03:19:41.011Z,22.65
2022-12-09T03:24:53.094Z,22.30
2022-12-09T03:30:01.502Z,21.58
2022-12-09T03:35:23.214Z,23.60
2022-12-09T03:40:30.691Z,23.30
2022-12-09T03:45:37.183Z,23.90
2022-12-09T03:50:49.280Z,22.42
2022-12-09T03:56:27.155Z,22.83
2022-12-09T04:01:34.516Z,22.83
2022-12-09T04:06:37.172Z,25.10
2022-12-09T04:11:42.238Z,22.85
2022-12-09T04:16:54.128Z,22.45
2022-12-09T04:21:58.289Z,22.80
2022-12-09T04:27:12.608Z,22.13
2022-12-09T04:32:21.909Z,23.20
2022-12-09T04:37:33.689Z,21.85
2022-12-09T04:42:39.027Z,23.17
2022-12-09T04:47:46.169Z,23.38
2022-12-09T04:52:50.886Z,22.45
2022-12-09T04:58:00.644Z,23.15
2022-12-09T05:03:08.244Z,23.08
2022-12-09T05:08:22.912Z,21.52
2022-12-09T05:13:35.905Z,21.60
2022-12-09T05:18:38.307Z,23.42
2022-12-09T05:23:46.597Z,22.20
2022-12-09T05:28:52.347Z,21.08
2022-12-09T05:33:57.115Z,22.17
2022-12-09T05:39:06.729Z,20.30
2022-12-09T05:44:16.462Z,21.45
2022-12-09T05:49:18.674Z,18.85
2022-12-09T05:54:27.329Z,18.65
2022-12-09T05:59:32.812Z,19.70
2022-12-09T06:04:39.270Z,19.92
2022-12-09T06:09:51.153Z,22.17
2022-12-09T06:14:53.253Z,20.55
2022-12-09T06:19:54.893Z,21.55
2022-12-09T06:25:01.724Z,21.45
2022-12-09T06:30:18.655Z,22.53
2022-12-09T06:35:23.768Z,21.35
2022-12-09T06:40:30.116Z,21.10
2022-12-09T06:45:36.074Z,20.13
2022-12-09T06:50:41.066Z,22.10
2022-12-09T06:55:48.787Z,20.88
2022-12-09T07:01:17.345Z,21.02
2022-12-09T07:06:28.760Z,19.13
2022-12-09T07:11:31.065Z,19.30
2022-12-09T07:21:53.966Z,18.02
2022-12-09T07:27:04.707Z,17.95
2022-12-09T07:32:24.375Z,16.73
2022-12-09T07:37:26.374Z,16.95
2022-12-09T07:42:31.875Z,17.15
2022-12-09T07:47:38.475Z,16.85
2022-12-09T07:52:55.536Z,16.10
2022-12-09T07:58:00.252Z,15.60
2022-12-09T08:03:06.566Z,15.23
2022-12-09T08:08:10.964Z,15.90
2022-12-09T08:13:18.840Z,15.85
2022-12-09T08:18:30.344Z,14.40
2022-12-09T08:23:40.422Z,14.70
2022-12-09T08:28:52.367Z,14.88
2022-12-09T08:34:02.327Z,14.82
2022-12-09T08:39:06.052Z,15.52
2022-12-09T08:44:16.542Z,15.70
2022-12-09T08:49:23.345Z,15.07
2022-12-09T08:54:27.487Z,14.52
2022-12-09T08:59:29.517Z,15.85
2022-12-09T09:04:31.890Z,16.08
2022-12-09T09:09:38.824Z,15.10
2022-12-09T09:14:52.883Z,14.48
2022-12-09T09:19:56.805Z,15.57
2022-12-09T09:25:06.852Z,15.57
2022-12-09T09:30:09.830Z,15.30
2022-12-09T09:35:18.820Z,15.32
2022-12-09T09:40:23.363Z,14.82
2022-12-09T09:45:29.551Z,14.18
2022-12-09T09:51:07.927Z,15.93
2022-12-09T09:56:36.838Z,16.13
2022-12-09T10:01:55.056Z,16.05
2022-12-09T10:07:07.919Z,16.58
2022-12-09T10:12:27.033Z,16.40
2022-12-09T10:17:55.428Z,16.00
2022-12-09T10:23:01.945Z,15.77
2022-12-09T10:28:29.271Z,15.27
2022-12-09T10:33:42.928Z,14.23
2022-12-09T10:38:48.173Z,15.60
2022-12-09T10:43:52.487Z,14.43
2022-12-09T10:49:01.555Z,15.57
2022-12-09T10:54:52.976Z,14.82
2022-12-09T11:05:30.190Z,13.82
2022-12-09T11:10:39.147Z,14.57
2022-12-09T11:15:52.824Z,14.13
2022-12-09T11:21:08.140Z,13.85
2022-12-09T11:26:33.802Z,14.63
2022-12-09T11:31:44.474Z,13.82
2022-12-09T11:36:52.252Z,13.82
2022-12-09T11:42:19.258Z,12.98
2022-12-09T11:47:44.865Z,13.88
2022-12-09T11:53:31.542Z,13.25
2022-12-09T11:58:52.394Z,13.48
2022-12-09T12:04:02.868Z,12.82
2022-12-09T12:09:18.129Z,12.73
2022-12-09T12:14:29.522Z,12.65
2022-12-09T12:19:41.320Z,12.32
2022-12-09T12:25:18.307Z,12.57
2022-12-09T12:30:41.088Z,12.48
2022-12-09T12:35:57.312Z,11.25
2022-12-09T12:41:10.419Z,12.68
2022-12-09T12:46:43.195Z,12.52
2022-12-09T12:52:47.547Z,13.52
2022-12-09T12:58:06.558Z,12.73
2022-12-09T13:03:15.370Z,12.18
2022-12-09T13:08:25.730Z,11.35
2022-12-09T13:13:55.085Z,11.65
2022-12-09T13:19:09.218Z,11.73
2022-12-09T13:25:08.261Z,11.70
2022-12-09T13:30:23.094Z,11.05
2022-12-09T13:36:06.303Z,11.45
2022-12-09T13:41:49.184Z,11.05
2022-12-09T13:46:54.385Z,11.90
2022-12-09T13:51:59.892Z,10.93
2022-12-09T13:57:29.800Z,10.75
2022-12-09T14:03:01.671Z,10.93
2022-12-09T14:08:22.429Z,10.35
2022-12-09T14:13:35.338Z,10.25
2022-12-09T14:18:45.947Z,10.90
2022-12-09T14:24:11.362Z,9.48
2022-12-09T14:29:54.040Z,10.68
2022-12-09T14:35:12.057Z,10.05
2022-12-09T14:40:30.085Z,10.43
2022-12-09T14:46:01.126Z,9.32
2022-12-09T14:51:16.277Z,9.20
2022-12-09T14:56:22.706Z,9.63
2022-12-09T15:01:26.583Z,9.35
2022-12-09T15:06:35.201Z,9.02
2022-12-09T15:11:40.932Z,8.63
2022-12-09T15:16:51.226Z,8.70
2022-12-09T15:21:53.138Z,8.70
2022-12-09T15:27:07.594Z,8.88
2022-12-09T15:32:27.666Z,9.65
2022-12-09T15:37:35.657Z,9.30
2022-12-09T15:42:44.214Z,9.30
2022-12-09T15:48:01.268Z,8.63
2022-12-09T15:53:27.307Z,10.65
2022-12-09T15:58:40.740Z,9.57
2022-12-09T16:03:52.653Z,10.10
2022-12-09T16:08:57.918Z,11.15
2022-12-09T16:14:02.102Z,10.95
2022-12-09T16:19:05.955Z,9.68
2022-12-09T16:24:14.153Z,11.35
2022-12-09T16:34:33.968Z,10.05
2022-12-09T16:39:40.680Z,9.73
2022-12-09T16:44:44.749Z,11.15
2022-12-09T16:49:58.542Z,11.75
2022-12-09T16:55:00.085Z,11.18
2022-12-09T17:00:03.598Z,11.73
2022-12-09T17:05:27.271Z,11.85
2022-12-09T17:10:31.309Z,11.10
2022-12-09T17:15:32.865Z,11.52
2022-12-09T17:20:38.388Z,11.93
2022-12-09T17:25:58.065Z,11.57
2022-12-09T17:31:01.216Z,13.05
2022-12-09T17:36:06.363Z,12.25
2022-12-09T17:41:13.095Z,13.65
2022-12-09T17:46:22.721Z,12.50
2022-12-09T17:51:35.372Z,12.52
2022-12-09T17:56:44.208Z,12.85
2022-12-09T18:01:51.039Z,13.90
2022-12-09T18:06:54.565Z,13.27
2022-12-09T18:12:06.491Z,12.45
2022-12-09T18:17:10.440Z,13.55
2022-12-09T18:22:15.005Z,12.93
2022-12-09T18:27:19.255Z,13.60
2022-12-09T18:32:20.757Z,12.13
2022-12-09T18:37:29.035Z,13.63
2022-12-09T18:42:33.596Z,14.55
2022-12-09T18:47:35.161Z,13.20
2022-12-09T18:52:40.639Z,13.00
2022-12-09T18:57:44.823Z,13.90
2022-12-09T19:02:47.721Z,14.75
2022-12-09T19:08:04.078Z,13.93
2022-12-09T19:13:10.064Z,13.38
2022-12-09T19:18:14.342Z,13.55
2022-12-09T19:23:33.813Z,13.88
2022-12-09T19:28:36.619Z,14.85
2022-12-09T19:33:53.046Z,13.63
2022-12-09T19:38:57.123Z,14.73
2022-12-09T19:44:00.094Z,15.95
2022-12-09T19:54:26.713Z,14.05
2022-12-09T19:59:30.060Z,14.40
2022-12-09T20:04:51.130Z,14.82
2022-12-09T20:10:11.082Z,15.30
2022-12-09T20:15:17.498Z,14.20
2022-12-09T20:20:19.289Z,14.32
2022-12-09T20:25:24.980Z,14.20
2022-12-09T20:30:27.728Z,15.32
2022-12-09T20:35:31.841Z,14.95
2022-12-09T20:40:40.779Z,14.95
2022-12-09T20:45:49.257Z,15.60
2022-12-09T20:50:59.044Z,15.25
2022-12-09T20:56:07.635Z,15.13
2022-12-09T21:01:19.472Z,16.17
2022-12-09T21:06:37.577Z,15.23
2022-12-09T21:11:42.782Z,15.60
2022-12-09T21:17:02.188Z,15.15
2022-12-09T21:22:06.281Z,14.90
2022-12-09T21:27:12.016Z,16.23
2022-12-09T21:32:13.604Z,15.45
2022-12-09T21:37:15.280Z,15.18
2022-12-09T21:42:16.959Z,15.00
2022-12-09T21:47:18.516Z,14.57
2022-12-09T21:52:26.164Z,15.55
2022-12-09T21:57:31.738Z,14.90
2022-12-09T22:02:44.489Z,15.07
2022-12-09T22:07:54.340Z,13.93
2022-12-09T22:12:55.978Z,15.00
2022-12-09T22:18:10.882Z,14.77
2022-12-09T22:23:17.202Z,15.02
2022-12-09T22:28:23.421Z,14.40
2022-12-09T22:33:30.112Z,15.90
2022-12-09T22:38:37.658Z,15.10
2022-12-09T22:43:40.438Z,16.05
2022-12-09T22:48:45.541Z,15.02
2022-12-09T22:53:53.274Z,15.30
2022-12-09T22:59:09.503Z,15.65
2022-12-09T23:04:17.942Z,16.25
2022-12-09T23:09:25.476Z,16.17
2022-12-09T23:14:29.093Z,16.85
2022-12-09T23:19:33.200Z,16.95
2022-12-09T23:24:37.589Z,16.95
2022-12-09T23:29:39.180Z,17.40
2022-12-09T23:34:51.579Z,17.55
2022-12-09T23:40:00.308Z,18.27
2022-12-09T23:45:01.886Z,20.10
2022-12-09T23:50:08.574Z,20.60
2022-12-09T23:55:16.818Z,14.60
